Terminal Aerodrome Forecast
Issued by NWS Jacksonville, FL

Home | Current Version | Previous Version | Text Only | Print | Product List | Glossary On
Versions: 1 2 3 4 5 6 7 8 9 10 11 12 13 14 15 16 17 18 19 20 21 22 23 24 25 26 27 28
000
FTUS42 KJAX 170550 AAA
TAFJAX
TAF AMD
KJAX 170550Z 1706/1806 00000KT 1/2SM FG BKN002
      TEMPO 1706/1710 1/4SM FG VV002
     FM171400 20003KT 2SM BR SCT002 SCT250
     FM171500 20007KT P6SM SCT015 SCT250
     FM172100 15006KT P6SM SCT040 BKN250
     FM180100 18004KT P6SM SCT050 BKN250=

USA.gov is the U.S. government's official web portal to all federal, state and local government web resources and services.